Terminal Aerodrome Forecast
Issued by NWS Sterling, VA

Current Version | Previous Version | Text Only | Print | Product List | Glossary Off
Versions: 1 2 3 4 5 6 7 8 9 10 11 12 13 14 15 16 17 18 19 20 21 22 23 24 25

000
FTUS41 KLWX 220900 AAA
TAFIAD
TAF AMD
KIAD 220900Z 2209/2312 VRB03KT P6SM FEW060 BKN110
     FM221100 VRB03KT P6SM SCT110 BKN250
     FM221600 26006KT P6SM SCT050 BKN090
     FM222000 22007KT P6SM BKN050
     FM230900 22007KT P6SM -SHRA SCT015 OVC040=

USA.gov is the U.S. government's official web portal to all federal, state and local government web resources and services.